ENV weather

Wendover Airport
Wendover, Utah, United States

Public forecast

Using degrees Fahrenheit for public forecast. Weather courtesy of forecast.io.

METAR (pilot weather report)

Retrieved 2019/07/17 02:56 UTC (1 hour ago):

KENV 170256Z AUTO 33020G25KT 10SM CLR 29/03 A2983 RMK AO2 PK WND 32029/0219 SLP050 T02940028 55000

TAF (pilot weather forecast)

Forecast is more than 12 hours old.

Retrieved 2019/07/16 00:22 UTC (1 day ago):

TAF KENV 162320Z 1700/1724 12010KT P6SM FEW120 FM170100 34012G20KT P6SM SCT120 FM170500 32009KT P6SM SCT120 FM171600 12006KT P6SM SCT120